Time;durP1;ratioP1;P1;durP2;ratioP2;P2;SDS_P1;SDS_P2;PMS_P1;PMS_P2;Temp;Humidity;BMP_temperature;BMP_pressure;BME280_temperature;BME280_humidity;BME280_pressure;Samples;Min_cycle;Max_cycle;Signal;HPM_P1;HPM_P2
2021/06/16 00:00:24;;;;;;;5.67;1.90;;;;;;;20.90;42.78;102044.75;5012708;28;20225;-73
2021/06/16 00:02:50;;;;;;;3.43;1.60;;;;;;;20.86;42.92;102043.03;5016166;28;20176;-76
2021/06/16 00:05:19;;;;;;;2.77;1.40;;;;;;;20.87;42.89;102037.78;4993176;28;20179;-75
2021/06/16 00:07:44;;;;;;;3.63;1.50;;;;;;;20.84;42.99;102039.56;4998604;28;20187;-74
2021/06/16 00:10:11;;;;;;;5.00;1.80;;;;;;;20.83;42.88;102040.44;4997316;28;20253;-74
2021/06/16 00:12:37;;;;;;;3.23;1.60;;;;;;;20.80;43.00;102041.31;4992832;28;20203;-77
2021/06/16 00:15:16;;;;;;;3.00;1.60;;;;;;;20.80;42.95;102043.03;4992992;28;20195;-74
2021/06/16 00:17:41;;;;;;;3.07;1.40;;;;;;;20.74;43.11;102038.72;4994149;28;20176;-74
2021/06/16 00:20:07;;;;;;;4.43;1.60;;;;;;;20.71;43.23;102035.25;4998726;28;20258;-72
2021/06/16 00:22:33;;;;;;;5.33;1.53;;;;;;;20.71;42.92;102043.06;5010799;28;20657;-74
2021/06/16 00:24:58;;;;;;;4.40;1.70;;;;;;;20.64;43.18;102036.16;5010876;28;20190;-74
2021/06/16 00:27:23;;;;;;;4.03;1.40;;;;;;;20.60;42.90;102032.66;5026016;28;20179;-74
2021/06/16 00:29:48;;;;;;;3.80;1.50;;;;;;;20.67;42.61;102028.31;5011602;28;20691;-76
2021/06/16 00:32:14;;;;;;;3.77;1.57;;;;;;;20.67;43.18;102028.31;5011735;28;20214;-74
2021/06/16 00:34:39;;;;;;;3.67;1.60;;;;;;;20.62;42.91;102030.06;5010629;28;20648;-76
2021/06/16 00:37:04;;;;;;;2.57;1.60;;;;;;;20.61;42.90;102025.72;4991892;28;20206;-73
2021/06/16 00:39:30;;;;;;;3.83;1.60;;;;;;;20.53;43.50;102023.16;5007374;28;20188;-73
2021/06/16 00:41:55;;;;;;;3.17;2.03;;;;;;;20.51;43.23;102026.63;5007571;28;20184;-77
2021/06/16 00:44:21;;;;;;;5.37;1.73;;;;;;;20.48;43.33;102032.72;4992721;28;20203;-74
2021/06/16 00:46:46;;;;;;;6.00;1.43;;;;;;;20.43;43.21;102026.66;4992494;28;20262;-74
2021/06/16 00:49:11;;;;;;;4.87;1.60;;;;;;;20.44;43.06;102025.78;4993561;28;20186;-73
2021/06/16 00:51:36;;;;;;;4.80;1.73;;;;;;;20.40;43.28;102026.63;4992167;28;20953;-74
2021/06/16 00:54:09;;;;;;;7.17;1.90;;;;;;;20.42;43.17;102017.13;4992324;28;20249;-76
2021/06/16 00:56:35;;;;;;;2.57;1.63;;;;;;;20.38;43.30;102023.19;4992415;28;20679;-74
2021/06/16 00:59:00;;;;;;;3.07;1.60;;;;;;;20.38;43.03;102020.59;4992006;28;20190;-75
2021/06/16 01:01:27;;;;;;;4.50;1.67;;;;;;;20.37;43.25;102026.66;4992327;28;20266;-74
2021/06/16 01:04:05;;;;;;;7.47;1.57;;;;;;;20.36;43.22;102019.69;5004989;28;20582;-73
2021/06/16 01:06:37;;;;;;;6.13;1.90;;;;;;;20.32;43.29;102023.19;5026776;28;20175;-76
2021/06/16 01:09:16;;;;;;;6.97;1.70;;;;;;;20.29;43.22;102023.19;4996925;28;20187;-73
2021/06/16 01:12:12;;;;;;;5.70;1.57;;;;;;;20.28;43.29;102016.28;4991898;28;20692;-73
2021/06/16 01:14:47;;;;;;;4.40;1.50;;;;;;;20.27;43.25;102019.72;4992065;28;20183;-76
2021/06/16 01:17:17;;;;;;;5.07;1.77;;;;;;;20.24;43.35;102018.84;4993386;28;20255;-73
2021/06/16 01:20:16;;;;;;;4.53;1.40;;;;;;;20.38;44.25;102017.09;5019117;23;20680;-73
2021/06/16 01:22:58;;;;;;;2.60;1.20;;;;;;;20.70;42.68;102010.97;4953965;28;20185;-72
2021/06/16 01:25:40;;;;;;;7.00;1.73;;;;;;;20.39;42.88;102013.63;4980543;28;20612;-71
2021/06/16 01:28:05;;;;;;;7.60;2.17;;;;;;;20.25;42.94;102011.06;4971994;28;20173;-73
2021/06/16 01:30:32;;;;;;;5.27;1.40;;;;;;;20.24;43.07;102006.72;4971008;28;20216;-73
2021/06/16 01:33:00;;;;;;;3.87;1.90;;;;;;;20.25;43.07;102007.56;4971067;28;20214;-72
2021/06/16 01:35:29;;;;;;;4.60;1.70;;;;;;;20.15;43.29;102008.47;4968559;28;20197;-73
2021/06/16 01:37:56;;;;;;;4.23;1.77;;;;;;;20.08;43.22;102015.41;4969056;28;20184;-72
2021/06/16 01:40:24;;;;;;;3.40;1.70;;;;;;;20.08;43.35;102015.41;4954256;28;20205;-72
2021/06/16 01:42:51;;;;;;;4.57;1.33;;;;;;;20.03;43.35;102009.31;4955062;28;20716;-72
2021/06/16 01:45:19;;;;;;;2.93;1.40;;;;;;;20.04;43.15;102002.38;4971571;28;20184;-72
2021/06/16 01:47:46;;;;;;;4.40;1.40;;;;;;;20.06;43.31;102011.03;4971742;28;20184;-72
2021/06/16 01:50:14;;;;;;;5.27;1.60;;;;;;;20.06;43.17;102008.44;4970716;28;20212;-70
2021/06/16 01:52:41;;;;;;;5.20;1.63;;;;;;;19.99;43.41;102010.16;4971624;28;20204;-72
2021/06/16 01:55:07;;;;;;;5.13;1.43;;;;;;;19.95;43.46;102004.97;4969825;28;20219;-72
2021/06/16 01:57:35;;;;;;;2.10;1.30;;;;;;;19.91;43.38;102008.44;4970291;28;20276;-72
2021/06/16 02:00:00;;;;;;;4.03;1.50;;;;;;;19.92;43.26;101998.06;4971219;28;20219;-72
2021/06/16 02:02:26;;;;;;;5.20;1.37;;;;;;;19.92;43.21;102007.56;4971513;28;20176;-72
2021/06/16 02:04:51;;;;;;;3.37;1.60;;;;;;;19.84;43.31;102004.97;4970770;28;20235;-71
2021/06/16 02:07:25;;;;;;;3.93;1.70;;;;;;;19.81;43.24;102007.56;4970456;28;20188;-72
2021/06/16 02:09:53;;;;;;;2.53;1.43;;;;;;;19.78;43.48;102014.50;4959819;28;20208;-73
2021/06/16 02:12:19;;;;;;;4.03;1.70;;;;;;;19.75;43.32;102009.28;4970716;28;20215;-72
2021/06/16 02:15:02;;;;;;;3.27;1.27;;;;;;;19.70;43.35;102016.22;4970543;28;20279;-72
2021/06/16 02:17:29;;;;;;;2.60;1.50;;;;;;;19.71;43.46;102010.19;4970866;28;20255;-73
2021/06/16 02:19:55;;;;;;;2.13;1.37;;;;;;;19.70;43.13;102013.63;4960277;28;20219;-72
2021/06/16 02:22:26;;;;;;;3.00;1.40;;;;;;;19.69;43.06;102017.09;4970320;28;20188;-72
2021/06/16 02:24:52;;;;;;;3.93;1.60;;;;;;;19.65;43.05;102012.75;4970850;28;20542;-72
2021/06/16 02:27:17;;;;;;;3.50;1.57;;;;;;;19.62;42.91;102015.38;4970810;28;20181;-73
2021/06/16 02:29:42;;;;;;;4.50;1.73;;;;;;;19.60;42.94;102011.88;4970018;28;20208;-72
2021/06/16 02:32:08;;;;;;;4.83;1.77;;;;;;;19.60;43.12;102017.97;4970340;28;20213;-73
2021/06/16 02:34:33;;;;;;;2.73;1.47;;;;;;;19.66;43.18;102015.34;4970652;28;20197;-72
2021/06/16 02:37:03;;;;;;;3.27;1.70;;;;;;;19.58;43.25;102008.44;4970136;28;20276;-72
2021/06/16 02:39:38;;;;;;;4.30;1.53;;;;;;;19.56;43.56;102005.81;4969890;28;20208;-72
2021/06/16 02:42:05;;;;;;;3.30;1.50;;;;;;;19.55;43.25;102016.22;4970584;28;20161;-71
2021/06/16 02:44:31;;;;;;;3.00;1.60;;;;;;;19.54;43.19;102011.88;4973645;28;20203;-72
2021/06/16 02:46:58;;;;;;;3.10;1.80;;;;;;;19.57;43.05;102017.09;4974203;28;20188;-72
2021/06/16 02:49:33;;;;;;;2.60;1.60;;;;;;;19.54;43.16;102007.56;4973909;28;20223;-71
2021/06/16 02:52:00;;;;;;;4.77;1.67;;;;;;;19.53;43.29;102010.16;4973096;28;20195;-72
2021/06/16 02:54:26;;;;;;;3.23;1.73;;;;;;;19.53;43.43;102003.22;4972836;28;20196;-72
2021/06/16 02:56:52;;;;;;;5.03;1.90;;;;;;;19.49;43.56;102006.66;4956412;28;20180;-72
2021/06/16 02:59:20;;;;;;;3.47;1.80;;;;;;;19.50;43.52;102010.13;4967008;28;20634;-71
2021/06/16 03:01:46;;;;;;;4.37;1.97;;;;;;;19.44;43.58;102012.72;4997477;28;20249;-72
2021/06/16 03:04:13;;;;;;;3.60;1.70;;;;;;;19.43;43.28;102008.41;4978720;28;20214;-72
2021/06/16 03:06:41;;;;;;;2.80;1.70;;;;;;;19.39;43.42;102011.88;4974225;28;20184;-72
2021/06/16 03:09:06;;;;;;;3.20;1.90;;;;;;;19.39;43.22;102006.66;4972766;28;20191;-72
2021/06/16 03:11:33;;;;;;;2.70;1.67;;;;;;;19.34;43.28;102011.84;4974494;28;20196;-72
2021/06/16 03:14:00;;;;;;;3.07;1.60;;;;;;;19.32;43.31;102005.78;4974326;28;20753;-72
2021/06/16 03:16:27;;;;;;;4.70;1.80;;;;;;;19.33;43.47;102007.50;4973618;28;20200;-72
2021/06/16 03:18:53;;;;;;;4.10;1.80;;;;;;;19.39;43.26;102014.47;4973419;28;20223;-70
2021/06/16 03:21:18;;;;;;;2.17;1.50;;;;;;;19.39;43.41;102014.47;4973720;28;20263;-71
2021/06/16 03:23:47;;;;;;;4.53;1.93;;;;;;;19.31;43.67;102006.66;4973832;28;20267;-72
2021/06/16 03:26:13;;;;;;;2.53;1.67;;;;;;;19.27;43.93;102006.63;4971585;28;20189;-71
2021/06/16 03:28:40;;;;;;;6.30;2.53;;;;;;;19.28;43.61;102006.63;4973387;28;20188;-72
2021/06/16 03:31:06;;;;;;;4.73;2.10;;;;;;;19.27;43.81;102006.63;4973282;28;20275;-72
2021/06/16 03:33:32;;;;;;;4.13;2.00;;;;;;;19.28;43.78;102004.03;4973232;28;20240;-71
2021/06/16 03:35:58;;;;;;;4.33;2.30;;;;;;;19.28;43.65;102008.34;4958725;28;20625;-71
2021/06/16 03:38:25;;;;;;;5.33;2.10;;;;;;;19.29;43.91;102002.28;4956628;28;20593;-71
2021/06/16 03:40:53;;;;;;;5.90;1.90;;;;;;;19.28;44.24;102005.75;4988859;28;20215;-71
2021/06/16 03:43:20;;;;;;;3.07;2.03;;;;;;;19.26;44.06;102004.91;4973651;28;20530;-72
2021/06/16 03:45:47;;;;;;;3.67;2.10;;;;;;;19.23;43.91;102012.66;4972136;28;20184;-72
2021/06/16 03:48:18;;;;;;;3.93;2.10;;;;;;;19.23;44.05;102008.34;4971635;28;20191;-72
2021/06/16 03:50:44;;;;;;;3.97;2.30;;;;;;;19.25;44.08;102003.16;4972747;28;20208;-71
2021/06/16 03:53:13;;;;;;;4.37;2.13;;;;;;;19.24;44.15;101999.69;4973296;28;20936;-72
2021/06/16 03:55:47;;;;;;;2.83;2.10;;;;;;;19.25;44.19;101995.38;4972362;28;20662;-72
2021/06/16 03:58:13;;;;;;;4.23;2.30;;;;;;;19.22;44.41;102000.50;4972679;28;20180;-70
2021/06/16 04:00:40;;;;;;;2.83;1.87;;;;;;;19.21;44.20;101991.84;4972748;28;20251;-72
2021/06/16 04:03:07;;;;;;;3.33;1.93;;;;;;;19.21;44.34;101997.03;4972750;28;20309;-72
2021/06/16 04:05:33;;;;;;;4.07;1.90;;;;;;;19.21;44.57;102001.38;4971530;28;20271;-70
2021/06/16 04:07:59;;;;;;;3.30;2.00;;;;;;;19.23;44.56;101992.78;4972791;28;20271;-71
2021/06/16 04:10:25;;;;;;;3.30;1.90;;;;;;;19.25;44.51;101997.97;4972303;28;20262;-70
2021/06/16 04:12:51;;;;;;;3.30;2.07;;;;;;;19.26;44.35;101997.94;4972542;28;20212;-71
2021/06/16 04:15:18;;;;;;;3.30;2.03;;;;;;;19.26;44.58;102002.28;4968491;28;20268;-72
2021/06/16 04:17:44;;;;;;;4.30;2.37;;;;;;;19.24;44.81;101994.50;4954307;28;20197;-72
2021/06/16 04:20:10;;;;;;;3.93;2.30;;;;;;;19.26;44.84;101992.75;4958306;28;20220;-72
2021/06/16 04:22:36;;;;;;;6.43;2.37;;;;;;;19.28;45.10;101996.25;4971759;28;20233;-71
2021/06/16 04:25:02;;;;;;;5.07;2.40;;;;;;;19.30;45.13;101994.50;4966071;28;20252;-72
2021/06/16 04:27:28;;;;;;;4.17;2.30;;;;;;;19.33;45.53;101996.22;4953493;29;20189;-71
2021/06/16 04:29:53;;;;;;;6.40;2.40;;;;;;;19.35;45.14;101995.38;4966779;28;20256;-70
2021/06/16 04:32:20;;;;;;;7.23;2.60;;;;;;;19.39;45.32;101994.53;4972870;28;20208;-70
2021/06/16 04:34:45;;;;;;;5.57;2.80;;;;;;;19.40;45.38;101992.81;4972685;28;20284;-72
2021/06/16 04:37:10;;;;;;;3.30;2.20;;;;;;;19.38;45.47;101994.50;4972769;28;20267;-71
2021/06/16 04:39:36;;;;;;;4.10;2.90;;;;;;;19.39;45.52;101991.06;4972287;28;20216;-72
2021/06/16 04:42:01;;;;;;;3.10;2.23;;;;;;;19.40;45.86;101993.66;4959658;28;20661;-72
2021/06/16 04:44:27;;;;;;;4.50;2.40;;;;;;;19.43;45.95;101996.25;4955341;28;20180;-73
2021/06/16 04:46:52;;;;;;;6.33;2.70;;;;;;;19.43;45.88;102003.22;4984998;28;20215;-70
2021/06/16 04:49:18;;;;;;;4.30;2.40;;;;;;;19.42;46.68;101998.84;4973045;28;20316;-71
2021/06/16 04:51:43;;;;;;;5.27;2.60;;;;;;;19.44;46.31;101994.53;4971613;28;20211;-70
2021/06/16 04:54:11;;;;;;;3.27;2.23;;;;;;;19.45;46.21;101998.88;4986711;28;20184;-70
2021/06/16 04:56:38;;;;;;;5.10;2.33;;;;;;;19.47;46.45;102004.94;4967579;28;20181;-70
2021/06/16 04:59:04;;;;;;;7.73;2.33;;;;;;;19.50;46.36;101997.16;4962536;28;20185;-70
2021/06/16 05:01:29;;;;;;;4.53;2.53;;;;;;;19.52;46.06;102003.19;4952882;28;20180;-70
2021/06/16 05:03:54;;;;;;;5.73;2.47;;;;;;;19.54;46.32;101998.88;4967559;28;20251;-72
2021/06/16 05:06:19;;;;;;;4.47;2.43;;;;;;;19.57;46.14;101999.75;4970865;28;20570;-71
2021/06/16 05:08:45;;;;;;;7.77;2.60;;;;;;;19.55;46.38;101996.31;4986558;28;20251;-72
2021/06/16 05:11:11;;;;;;;3.87;2.33;;;;;;;19.59;46.15;101997.16;4971705;28;20232;-71
2021/06/16 05:13:36;;;;;;;3.17;2.40;;;;;;;19.67;46.03;101996.28;4986866;28;20704;-73
2021/06/16 05:16:02;;;;;;;6.37;2.20;;;;;;;19.78;45.42;101986.78;4972236;28;20605;-72
2021/06/16 05:18:27;;;;;;;4.63;2.10;;;;;;;19.89;45.17;101990.25;4971261;28;20596;-74
2021/06/16 05:20:52;;;;;;;5.53;1.90;;;;;;;19.97;45.22;101985.91;4971287;28;20303;-74
2021/06/16 05:23:18;;;;;;;7.90;2.10;;;;;;;20.07;44.82;101987.63;4971813;28;20181;-73
2021/06/16 05:25:47;;;;;;;6.83;2.10;;;;;;;20.16;44.82;101984.16;4971631;28;20184;-73
2021/06/16 05:28:12;;;;;;;6.67;2.27;;;;;;;20.22;44.90;101972.03;4971875;28;20278;-72
2021/06/16 05:30:37;;;;;;;7.13;1.93;;;;;;;20.26;44.87;101978.13;4970039;28;20728;-72
2021/06/16 05:33:03;;;;;;;5.23;2.10;;;;;;;20.31;44.41;101977.22;4971450;28;20204;-73
2021/06/16 05:35:29;;;;;;;6.47;1.90;;;;;;;20.32;45.00;101978.94;4970553;28;20272;-72
2021/06/16 05:37:54;;;;;;;7.73;2.10;;;;;;;20.34;45.04;101973.72;4971618;28;20192;-72
2021/06/16 05:40:19;;;;;;;4.77;1.87;;;;;;;20.35;45.20;101972.84;4971242;28;20218;-72
2021/06/16 05:42:45;;;;;;;10.17;2.30;;;;;;;20.36;45.27;101974.63;4971329;28;20704;-72
2021/06/16 05:45:11;;;;;;;5.27;1.97;;;;;;;20.39;45.35;101969.38;4969832;28;20188;-73
2021/06/16 05:47:36;;;;;;;5.30;1.93;;;;;;;20.41;45.21;101972.88;4970901;28;20181;-72
2021/06/16 05:50:02;;;;;;;5.73;2.10;;;;;;;20.43;45.34;101973.72;4971393;28;20208;-73
2021/06/16 05:52:28;;;;;;;6.33;1.80;;;;;;;20.44;44.74;101962.44;4969751;28;20696;-72
2021/06/16 05:54:53;;;;;;;4.47;2.10;;;;;;;20.46;45.25;101964.16;4970149;28;20208;-71
2021/06/16 05:57:18;;;;;;;9.27;2.37;;;;;;;20.49;45.31;101965.91;4969692;28;20203;-72
2021/06/16 05:59:44;;;;;;;5.73;2.13;;;;;;;20.50;45.21;101965.03;4969540;28;20580;-73
2021/06/16 06:02:09;;;;;;;5.23;2.00;;;;;;;20.51;45.02;101959.84;4971082;28;20929;-74
2021/06/16 06:04:35;;;;;;;5.63;2.17;;;;;;;20.53;44.97;101957.19;4969849;28;20199;-72
2021/06/16 06:07:01;;;;;;;9.37;2.33;;;;;;;20.56;45.19;101952.00;4970881;28;20300;-71
2021/06/16 06:09:27;;;;;;;12.87;2.80;;;;;;;20.58;45.28;101951.09;4969424;28;20219;-73
2021/06/16 06:11:52;;;;;;;10.73;2.97;;;;;;;20.60;45.75;101957.16;4970758;28;20697;-71
2021/06/16 06:14:17;;;;;;;17.17;4.03;;;;;;;20.64;45.75;101950.22;4970732;28;20255;-73
2021/06/16 06:16:42;;;;;;;23.23;4.90;;;;;;;20.67;45.54;101948.47;4968840;28;20220;-74
2021/06/16 06:19:08;;;;;;;27.53;6.17;;;;;;;20.72;45.78;101945.84;4970502;28;20541;-73
2021/06/16 06:21:33;;;;;;;23.93;5.70;;;;;;;20.74;45.47;101944.09;4970142;28;20215;-74
2021/06/16 06:24:00;;;;;;;24.83;5.70;;;;;;;20.75;45.51;101938.03;4968945;28;20208;-72
2021/06/16 06:26:25;;;;;;;23.43;5.70;;;;;;;20.76;45.30;101943.22;4968896;28;20215;-71
2021/06/16 06:28:51;;;;;;;27.80;6.47;;;;;;;20.78;45.55;101949.28;4970564;28;20649;-72
2021/06/16 06:31:16;;;;;;;19.63;5.13;;;;;;;20.79;45.48;101942.34;4971467;28;20207;-71
2021/06/16 06:33:41;;;;;;;17.90;4.80;;;;;;;20.81;45.22;101943.19;4988595;28;20242;-74
2021/06/16 06:36:07;;;;;;;19.83;4.83;;;;;;;20.83;45.25;101942.31;4980076;28;20702;-72
2021/06/16 06:38:32;;;;;;;17.03;4.30;;;;;;;20.86;45.05;101949.28;4970461;28;20188;-73
2021/06/16 06:40:57;;;;;;;13.43;3.57;;;;;;;20.87;45.38;101943.19;4970443;28;20208;-73
2021/06/16 06:43:23;;;;;;;12.90;3.67;;;;;;;20.89;45.26;101938.81;4970863;28;20193;-71
2021/06/16 06:45:48;;;;;;;14.57;4.47;;;;;;;20.90;45.44;101938.84;4969401;28;20184;-74
2021/06/16 06:48:13;;;;;;;10.33;3.37;;;;;;;20.92;45.39;101941.44;4970563;28;20188;-69
2021/06/16 06:50:38;;;;;;;10.47;3.50;;;;;;;20.93;45.17;101938.84;4969020;28;20292;-72
2021/06/16 06:53:04;;;;;;;13.43;3.57;;;;;;;20.95;45.05;101929.28;4970825;28;20212;-74
2021/06/16 06:55:29;;;;;;;11.20;3.40;;;;;;;20.98;45.13;101929.25;4970565;28;20180;-72
2021/06/16 06:57:55;;;;;;;16.97;3.60;;;;;;;21.12;45.93;101931.78;4970959;28;20653;-78
2021/06/16 07:00:57;;;;;;;10.07;2.90;;;;;;;21.42;45.00;101924.59;5101152;27;52474;-83
2021/06/16 07:03:22;;;;;;;18.33;2.97;;;;;;;21.68;44.35;101917.44;5089277;28;20212;-80
2021/06/16 07:05:47;;;;;;;11.23;2.50;;;;;;;21.78;44.07;101926.94;5097437;28;20188;-80
2021/06/16 07:08:12;;;;;;;11.03;2.97;;;;;;;21.80;44.32;101925.22;5084327;28;20182;-79
2021/06/16 07:10:38;;;;;;;5.07;2.77;;;;;;;21.81;44.16;101918.22;5093060;28;20196;-78
2021/06/16 07:13:04;;;;;;;11.17;2.53;;;;;;;21.81;43.99;101913.88;5087992;28;20184;-81
2021/06/16 07:15:30;;;;;;;8.90;2.60;;;;;;;21.84;44.58;101908.63;5089459;28;20269;-80
2021/06/16 07:17:55;;;;;;;8.70;2.80;;;;;;;21.90;44.04;101905.09;5099624;28;20175;-79
2021/06/16 07:20:21;;;;;;;7.83;2.40;;;;;;;21.96;44.18;101912.84;5094708;28;20299;-82
2021/06/16 07:22:47;;;;;;;8.90;2.70;;;;;;;21.99;44.44;101912.84;5088568;28;20202;-81
2021/06/16 07:25:12;;;;;;;9.73;2.77;;;;;;;22.02;44.62;101907.59;5088775;28;20649;-80
2021/06/16 07:27:38;;;;;;;7.43;2.50;;;;;;;22.06;43.82;101910.16;5087948;28;20187;-80
2021/06/16 07:30:06;;;;;;;6.67;2.80;;;;;;;22.08;43.92;101904.91;5087525;28;20219;-80
2021/06/16 07:32:31;;;;;;;6.70;2.27;;;;;;;22.11;43.97;101902.28;5088563;28;20263;-81
2021/06/16 07:34:57;;;;;;;5.83;2.33;;;;;;;22.16;43.45;101900.50;5097902;28;20204;-80
2021/06/16 07:37:22;;;;;;;6.73;2.07;;;;;;;22.23;43.78;101901.28;5088701;28;20180;-80
2021/06/16 07:39:47;;;;;;;8.33;2.40;;;;;;;22.18;44.17;101902.19;5100518;28;20594;-81
2021/06/16 07:42:13;;;;;;;8.93;2.47;;;;;;;22.19;43.43;101900.44;5088689;28;20184;-79
2021/06/16 07:44:39;;;;;;;10.53;2.47;;;;;;;22.20;43.80;101899.56;5087945;28;20183;-79
2021/06/16 07:47:04;;;;;;;8.63;2.57;;;;;;;22.23;47.08;101896.91;5087505;28;20203;-79
2021/06/16 07:49:29;;;;;;;7.50;2.27;;;;;;;22.09;43.72;101898.81;5086427;28;20208;-79
2021/06/16 07:51:55;;;;;;;6.17;2.50;;;;;;;22.05;43.35;101900.59;5087093;28;20207;-77
2021/06/16 07:54:21;;;;;;;8.40;2.20;;;;;;;22.07;44.06;101895.38;5092111;28;20232;-84
2021/06/16 07:56:46;;;;;;;6.43;2.07;;;;;;;22.05;43.62;101897.97;5092806;28;20210;-82
2021/06/16 07:59:11;;;;;;;6.57;2.30;;;;;;;22.07;44.12;101898.81;5086451;28;20682;-81
2021/06/16 08:01:38;;;;;;;5.93;2.50;;;;;;;22.11;43.92;101892.69;5067814;28;20227;-77
2021/06/16 08:04:03;;;;;;;7.43;2.13;;;;;;;22.13;44.07;101888.34;5079446;28;20176;-78
2021/06/16 08:06:29;;;;;;;4.97;1.97;;;;;;;22.15;43.79;101883.06;5085771;28;20546;-82
2021/06/16 08:08:54;;;;;;;5.23;1.77;;;;;;;22.24;43.89;101891.69;5084859;28;20176;-76
2021/06/16 08:11:21;;;;;;;7.03;2.30;;;;;;;22.29;43.86;101875.97;5078008;28;20193;-81
2021/06/16 08:13:46;;;;;;;7.83;2.43;;;;;;;22.42;44.11;101871.47;5072976;28;20184;-79
2021/06/16 08:16:12;;;;;;;5.97;2.10;;;;;;;22.41;43.74;101880.19;5072586;28;20184;-79
2021/06/16 08:18:37;;;;;;;5.67;1.93;;;;;;;22.38;43.62;101877.59;5072401;28;20213;-81
2021/06/16 08:21:02;;;;;;;4.20;1.97;;;;;;;22.33;43.58;101864.59;5072256;28;20247;-78
2021/06/16 08:23:27;;;;;;;4.30;1.80;;;;;;;22.33;43.85;101863.75;5072515;28;20192;-79
2021/06/16 08:25:53;;;;;;;9.40;2.53;;;;;;;22.34;43.68;101856.75;5073953;28;20797;-76
2021/06/16 08:28:18;;;;;;;5.93;1.90;;;;;;;22.19;44.15;101856.94;5073465;28;20192;-80
2021/06/16 08:30:43;;;;;;;3.37;1.97;;;;;;;22.17;44.34;101861.31;5071399;28;20246;-77
2021/06/16 08:33:09;;;;;;;3.40;1.70;;;;;;;22.14;44.23;101868.31;5072222;28;20220;-78
2021/06/16 08:35:35;;;;;;;3.93;1.70;;;;;;;22.18;44.02;101852.59;5072140;28;20682;-78
2021/06/16 08:38:00;;;;;;;5.93;2.40;;;;;;;22.17;44.12;101855.22;5072048;28;20185;-78
2021/06/16 08:40:26;;;;;;;4.30;1.70;;;;;;;22.19;44.78;101851.72;5071554;28;20227;-79
2021/06/16 08:42:51;;;;;;;5.83;1.93;;;;;;;22.20;44.45;101847.38;5071973;28;20181;-79
2021/06/16 08:45:18;;;;;;;5.00;1.80;;;;;;;22.26;44.46;101844.69;5071865;28;20343;-79
2021/06/16 08:47:48;;;;;;;4.87;2.13;;;;;;;22.30;44.02;101843.75;5072200;28;20538;-79
2021/06/16 08:50:14;;;;;;;2.73;1.70;;;;;;;22.33;44.19;101842.84;5071599;28;20201;-80
2021/06/16 08:52:40;;;;;;;2.50;1.47;;;;;;;22.30;44.53;101835.94;5065746;28;20174;-78
2021/06/16 08:55:12;;;;;;;4.37;2.00;;;;;;;22.37;44.08;101844.56;5074707;28;20697;-79
2021/06/16 08:57:37;;;;;;;3.93;1.90;;;;;;;22.41;43.88;101838.41;5064795;28;20609;-77
2021/06/16 09:00:08;;;;;;;2.83;1.90;;;;;;;22.38;43.68;101836.66;5043817;28;20260;-78
2021/06/16 09:02:34;;;;;;;3.07;1.80;;;;;;;22.43;43.82;101840.13;5068845;28;20181;-78
2021/06/16 09:04:59;;;;;;;3.20;1.70;;;;;;;22.48;43.91;101838.34;5071342;28;20184;-77
2021/06/16 09:07:31;;;;;;;2.87;1.70;;;;;;;22.53;43.78;101835.66;5072864;28;20181;-77
2021/06/16 09:10:17;;;;;;;4.00;1.67;;;;;;;22.57;43.48;101835.59;5080342;28;20240;-81
2021/06/16 09:12:56;;;;;;;3.30;1.60;;;;;;;22.60;43.16;101829.47;5071943;28;20165;-79
2021/06/16 09:15:24;;;;;;;4.27;1.40;;;;;;;22.66;43.21;101838.09;5070298;28;20196;-76
2021/06/16 09:18:04;;;;;;;4.10;1.70;;;;;;;22.74;43.09;101823.16;5071008;28;20181;-76
2021/06/16 09:20:32;;;;;;;4.80;1.70;;;;;;;22.78;42.77;101822.22;5071149;28;20236;-82
2021/06/16 09:23:18;;;;;;;2.97;1.60;;;;;;;22.79;42.78;101816.09;5070683;28;20272;-77
2021/06/16 09:26:02;;;;;;;5.00;1.80;;;;;;;22.74;42.73;101825.75;5071293;28;20173;-81
2021/06/16 09:28:36;;;;;;;3.87;1.60;;;;;;;22.72;42.55;101822.31;5071204;28;20172;-79
2021/06/16 09:31:02;;;;;;;2.50;1.80;;;;;;;22.76;42.70;101815.28;5070837;28;20236;-79
2021/06/16 09:33:27;;;;;;;3.70;1.67;;;;;;;22.76;42.61;101816.16;5071102;28;20612;-77
2021/06/16 09:35:52;;;;;;;3.27;1.90;;;;;;;22.73;42.88;101804.88;5070718;28;20180;-78
2021/06/16 09:38:31;;;;;;;3.40;1.60;;;;;;;22.73;42.79;101805.75;5070812;28;20407;-77
2021/06/16 09:40:58;;;;;;;3.97;1.77;;;;;;;22.81;42.74;101803.03;5070506;28;20230;-78
2021/06/16 09:43:23;;;;;;;5.03;1.67;;;;;;;22.88;42.37;101802.06;5070970;28;20185;-75
2021/06/16 09:46:01;;;;;;;3.90;2.00;;;;;;;22.89;42.04;101796.81;5070676;28;20188;-80
2021/06/16 09:48:28;;;;;;;7.20;1.90;;;;;;;22.93;42.45;101795.84;5070534;28;20665;-77
2021/06/16 09:51:14;;;;;;;5.53;2.00;;;;;;;23.02;43.29;101797.47;5070744;28;20685;-79
2021/06/16 09:53:58;;;;;;;3.43;1.83;;;;;;;23.02;42.83;101792.25;5071392;28;20169;-76
2021/06/16 09:56:25;;;;;;;5.23;2.10;;;;;;;23.08;42.51;101786.91;5070595;28;20642;-77
2021/06/16 09:58:52;;;;;;;3.37;1.90;;;;;;;23.12;42.79;101791.22;5070267;28;20184;-78
2021/06/16 10:01:17;;;;;;;4.47;2.10;;;;;;;23.08;42.67;101785.19;5050428;28;20287;-76
2021/06/16 10:03:43;;;;;;;3.90;1.60;;;;;;;23.15;42.77;101788.56;5070049;28;20278;-77
2021/06/16 10:06:15;;;;;;;3.47;2.00;;;;;;;23.09;42.67;101779.06;5070429;28;20189;-79
2021/06/16 10:08:46;;;;;;;5.17;2.00;;;;;;;23.15;42.83;101783.31;5083438;28;20256;-80
2021/06/16 10:11:18;;;;;;;5.43;2.30;;;;;;;23.18;42.74;101772.78;5050340;28;20681;-79
2021/06/16 10:13:45;;;;;;;2.97;2.00;;;;;;;23.22;42.63;101775.38;5068079;28;20259;-78
2021/06/16 10:16:12;;;;;;;4.70;2.00;;;;;;;23.24;42.42;101773.59;5069745;28;20185;-80
2021/06/16 10:18:42;;;;;;;3.40;1.90;;;;;;;23.29;42.81;101765.69;5070489;28;20181;-80
2021/06/16 10:21:09;;;;;;;4.80;2.20;;;;;;;23.24;42.38;101763.13;5073236;28;20205;-77
2021/06/16 10:23:35;;;;;;;3.97;2.50;;;;;;;23.19;42.64;101762.34;5071948;28;20185;-80
2021/06/16 10:26:05;;;;;;;4.37;2.67;;;;;;;23.19;42.82;101756.25;5070594;28;20287;-78
2021/06/16 10:28:45;;;;;;;3.40;2.33;;;;;;;23.18;42.61;101760.59;5070775;28;20195;-79
2021/06/16 10:31:11;;;;;;;4.83;2.10;;;;;;;23.15;42.75;101752.78;5059716;28;20220;-78
2021/06/16 10:33:38;;;;;;;4.07;2.43;;;;;;;23.15;42.70;101751.97;5070461;28;20557;-80
2021/06/16 10:36:21;;;;;;;2.77;2.20;;;;;;;23.16;42.83;101745.84;5063758;28;20205;-80
2021/06/16 10:39:01;;;;;;;4.60;2.60;;;;;;;23.14;42.71;101739.75;5068551;28;20211;-84
2021/06/16 10:41:41;;;;;;;3.73;2.43;;;;;;;23.15;42.96;101747.56;5070295;28;20209;-79
2021/06/16 10:44:15;;;;;;;5.20;2.30;;;;;;;23.17;42.85;101752.78;5069999;28;20181;-78
2021/06/16 10:46:59;;;;;;;6.23;2.40;;;;;;;23.17;42.68;101737.97;5070347;28;20276;-80
2021/06/16 10:49:43;;;;;;;3.67;2.73;;;;;;;23.18;42.94;101739.69;5069898;28;20173;-80
2021/06/16 10:52:21;;;;;;;4.90;2.60;;;;;;;23.19;42.89;101738.81;5068506;28;20222;-80
2021/06/16 10:55:06;;;;;;;4.60;2.33;;;;;;;23.21;42.79;101742.25;5066655;28;20181;-77
2021/06/16 10:57:33;;;;;;;3.80;2.57;;;;;;;23.21;42.70;101739.66;5050515;28;20260;-78
2021/06/16 11:00:00;;;;;;;5.47;2.97;;;;;;;23.26;42.92;101744.81;5069056;28;20563;-80
2021/06/16 11:02:28;;;;;;;4.63;2.53;;;;;;;23.31;42.62;101742.97;5048997;28;20236;-80
2021/06/16 11:05:17;;;;;;;4.00;2.50;;;;;;;23.31;42.52;101741.22;5069449;28;20721;-79
2021/06/16 11:07:42;;;;;;;4.43;2.60;;;;;;;23.34;42.17;101728.06;5073913;28;20237;-78
2021/06/16 11:10:08;;;;;;;4.67;2.77;;;;;;;23.39;42.27;101733.25;5072388;28;20669;-80
2021/06/16 11:12:44;;;;;;;5.10;2.70;;;;;;;23.41;42.02;101729.69;5070006;28;20200;-77
2021/06/16 11:15:24;;;;;;;3.87;2.93;;;;;;;23.47;41.96;101726.09;5068583;28;20267;-79
2021/06/16 11:17:57;;;;;;;3.27;2.63;;;;;;;23.49;42.17;101716.47;5069748;28;20192;-77
2021/06/16 11:20:25;;;;;;;3.00;2.67;;;;;;;23.50;42.08;101708.59;5069556;28;20786;-78
2021/06/16 11:23:02;;;;;;;4.37;2.77;;;;;;;23.52;41.94;101714.66;5071098;28;20596;-80
2021/06/16 11:25:34;;;;;;;2.83;2.30;;;;;;;23.54;42.13;101701.56;5070153;28;20534;-79
2021/06/16 11:28:16;;;;;;;3.17;2.53;;;;;;;23.52;41.88;101706.81;5069882;28;20177;-80